Station SGXA2 - ST GEORGE MXAK Image indicating link to RSS feed of recent meteorological observations for station SGXA2


Conditions at SGXA2 as of
1935 GMT on 04/16/2024:
     

Click on the graph icon in the table below to see a time series plot of the last five days of that observation.

5-day plot - Wind Direction Wind Direction (WDIR):SSE ( 150 deg true )
5-day plot - Wind Speed Wind Speed (WSPD): 11 kts
5-day plot - Wind Gust Wind Gust (GST): 14 kts
5-day plot - Air Temperature Air Temperature (ATMP): 34.5 °F
5-day plot - Dew Point Dew Point (DEWP): 34.5 °F
5-day plot - Wind Chill Wind Chill (CHILL): 25.7 °F
5-day plot - Wind Speed at 10 Meters Wind Speed at 10 meters (WSPD10M): 10 kts
5-day plot - Wind Speed at 20 Meters Wind Speed at 20 meters (WSPD20M): 10 kts
5-day plot -  Wind Speed, Wind Gust and Atmospheric Pressure Combined plot of Wind Speed, Gust, and Air Pressure
Previous observations
TIME
(GMT)
5-day plot - Wind Direction
WDIR
 
5-day plot - Wind Speed
WSPD
kts
5-day plot - Wind Gust
GST
kts
5-day plot - Wave Height
WVHT
ft
5-day plot - Dominant Wave Period
DPD
sec
5-day plot - Average Wave Period
APD
sec
5-day plot - Mean Wave Direction
MWD
 
5-day plot - Atmospheric Pressure
PRES
in
5-day plot - Pressure Tendency
PTDY
in
5-day plot - Air Temperature
ATMP
°F
5-day plot - Water Temperature
WTMP
°F
5-day plot - Dew Point
DEWP
°F
5-day plot - Salinity
SAL
psu
5-day plot - Visibility
VIS
nmi
5-day plot - Tide (above MLLW)
TIDE
ft
2024-04-16 1915SSE 10 12------ 34.2- 34.2---
2024-04-16 1905SSE 8 10------ 34.2- 34.2---
2024-04-16 1855SSE 8 10------ 34.0- 34.0---
2024-04-16 1845SSE 9 11------ 33.8- 33.8---
2024-04-16 1835SSE 9 11------ 33.6- 33.6---
2024-04-16 1825SSE 11 13------ 33.6- 33.6---
2024-04-16 1815SSE 11 13------ 33.4- 33.4---
2024-04-16 1805SSE 11 13------ 33.4- 33.4---
2024-04-16 1755SSE 11 13------ 33.4- 33.4---
2024-04-16 1745SSE 10 13------ 33.4- 33.4---
2024-04-16 1735 SE 9 11------ 33.3- 33.1---
2024-04-16 1725 SE 8 10------ 33.1- 33.1---
2024-04-16 1715SSE 10 10------ 33.1- 33.1---
2024-04-16 1705SSE 10 11------ 32.9- 32.9---
2024-04-16 1655SSE 11 13------ 32.9- 32.9---
2024-04-16 1645SSE 11 13------ 32.9- 32.9---
2024-04-16 1635SSE 11 13------ 32.9- 32.9---
2024-04-16 1626SSE 11 13------ 33.1- 33.1---
2024-04-16 1615SSE 11 13------ 33.3- 33.3---
2024-04-16 1605SSE 9 12------ 33.4- 33.4---
2024-04-16 1555SSE 10 13------ 33.4- 33.4---
2024-04-16 1545SSE 10 12------ 33.3- 33.3---
2024-04-16 1535SSE 10 12------ 33.3- 33.3---
2024-04-16 1525SSE 11 13------ 33.3- 33.3---
2024-04-16 1515 SE 10 13------ 33.4- 33.4---
2024-04-16 1505SSE 12 14------ 33.4- 33.4---
2024-04-16 1455SSE 12 14------ 33.4- 33.4---
2024-04-16 1445 SE 12 14------ 33.3- 33.3---
2024-04-16 1435 SE 12 14------ 33.1- 33.1---
2024-04-16 1425 SE 11 12------ 33.1- 33.1---
2024-04-16 1415 SE 11 12------ 32.9- 32.9---
2024-04-16 1405 SE 10 11------ 33.1- 32.9---
2024-04-16 1355SSE 9 11------ 33.3- 33.1---
2024-04-16 1345SSE 9 11------ 33.1- 33.1---
2024-04-16 1335SSE 10 12------ 32.9- 32.9---
2024-04-16 1325SSE 9 12------ 32.9- 32.9---
2024-04-16 1316SSE 8 10------ 33.1- 33.1---
2024-04-16 1305SSE 9 11------ 33.1- 33.1---
2024-04-16 1255SSE 9 10------ 33.1- 32.7---
2024-04-16 1245SSE 7 8------ 33.3- 32.4---
2024-04-16 1235SSE 7 9------ 33.3- 32.4---
2024-04-16 1225SSE 8 9------ 33.1- 32.5---
2024-04-16 1215SSE 8 10------ 32.9- 32.5---
2024-04-16 1205SSE 7 7------ 33.1- 32.9---
2024-04-16 1155 S 8 10------ 33.1- 32.9---
2024-04-16 1145SSE 8 10------ 33.1- 32.7---
2024-04-16 1135 S 8 11------ 33.1- 32.7---
2024-04-16 1125SSE 9 11------ 33.1- 32.7---
2024-04-16 1115SSE 9 11------ 32.9- 32.4---
2024-04-16 1105SSE 9 10------ 33.1- 32.0---
2024-04-16 1055SSE 9 11------ 33.1- 31.8---
2024-04-16 1045 S 9 11------ 33.1- 31.6---
2024-04-16 1035 S 8 12------ 32.9- 31.6---
2024-04-16 1025 S 7 9------ 32.7- 31.3---
2024-04-16 1015 S 8 9------ 32.5- 31.5---
2024-04-16 1005 S 8 9------ 32.2- 30.6---
2024-04-16 0955SSW 7 8------ 31.5- 29.5---
2024-04-16 0945SSW 6 6------ 31.3- 29.1---
2024-04-16 0935SSW 5 6------ 31.3- 28.8---
2024-04-16 0925 SW 6 7------ 32.0- 28.8---
2024-04-16 0915 SW 6 7------ 31.8- 28.8---
2024-04-16 0905 SW 5 6------ 31.6- 28.9---
2024-04-16 0855 SW 6 6------ 31.8- 28.9---
2024-04-16 0845 SW 5 6------ 31.8- 29.1---
2024-04-16 0835SSW 4 5------ 31.3- 29.7---
2024-04-16 0825 SW 3 4------ 31.8- 29.8---
2024-04-16 0815WSW 4 6------ 32.0- 30.2---
2024-04-16 0755 SW 4 5------ 32.2- 30.6---
2024-04-16 0745WSW 3 5------ 32.2- 30.7---
2024-04-16 0735WSW 4 6------ 32.0- 30.2---
2024-04-16 0725WSW 5 7------ 32.2- 30.2---
2024-04-16 0715WSW 6 8------ 32.4- 30.0---
2024-04-16 0705WSW 7 10------ 33.1- 29.7---
2024-04-16 0655 W 10 15------ 33.6- 29.7---
2024-04-16 0645 W 9 14------ 33.6- 30.7---
2024-04-16 0635 W 10 14------ 33.6- 30.7---
2024-04-16 0625 W 12 17------ 33.6- 31.1---
2024-04-16 0615 W 12 17------ 33.8- 32.2---
2024-04-16 0605 W 13 18------ 33.8- 32.2---
2024-04-16 0555 W 14 18------ 33.6- 32.2---
2024-04-16 0545 W 14 19------ 34.2- 33.1---
2024-04-16 0535 W 11 15------ 34.5- 33.4---
2024-04-16 0525 W 12 16------ 34.5- 33.3---
2024-04-16 0515 W 13 17------ 34.5- 33.3---
2024-04-16 0505 W 14 18------ 34.7- 32.7---
2024-04-16 0455 W 14 19------ 34.7- 33.1---
2024-04-16 0445 W 16 23------ 34.7- 33.3---
2024-04-16 0436 W 18 22------ 34.9- 32.5---
2024-04-16 0425 W 17 22------ 35.1- 32.2---
2024-04-16 0415 W 16 22------ 35.1- 33.3---
2024-04-16 0405 W 16 20------ 35.1- 33.4---
2024-04-16 0355 W 18 25------ 35.2- 34.0---
2024-04-16 0345 W 18 26------ 35.6- 34.0---
2024-04-16 0335 W 16 23------ 35.8- 34.7---
2024-04-16 0325 W 13 17------ 35.6- 35.2---
2024-04-16 0315 W 16 20------ 35.4- 34.7---
2024-04-16 0305 W 16 21------ 36.0- 34.9---
2024-04-16 0256 W 18 23------ 36.7- 34.9---
2024-04-16 0246 W 17 22------ 36.9- 35.4---
2024-04-16 0236 W 19 25------ 36.1- 34.9---
2024-04-16 0225 W 17 24------ 36.1- 35.1---
2024-04-16 0215 W 17 23------ 36.0- 35.2---
2024-04-16 0205 W 19 26------ 36.1- 34.9---
2024-04-16 0155 W 21 27------ 36.7- 34.9---
2024-04-16 0145 W 20 31------ 36.5- 35.6---
2024-04-16 0135 W 20 26------ 36.7- 35.8---
2024-04-16 0125 W 22 29------ 36.3- 36.0---
2024-04-16 0115 W 22 29------ 36.7- 36.0---
2024-04-16 0105 W 22 29------ 37.0- 35.6---
2024-04-16 0055 W 20 28------ 36.9- 36.3---
2024-04-16 0045 W 21 28------ 36.9- 36.3---
2024-04-16 0035 W 21 30------ 37.2- 37.0---
2024-04-16 0025 W 19 28------ 37.9- 37.9---
2024-04-16 0015WSW 22 30------ 38.1- 38.1---
2024-04-15 2355WSW 20 29------ 37.9- 37.9---
2024-04-15 2345WSW 21 28------ 37.8- 37.8---
2024-04-15 2335WSW 23 30------ 37.8- 37.8---
2024-04-15 2325WSW 22 30------ 38.5- 38.5---
2024-04-15 2315 SW 23 29------ 38.1- 38.1---
2024-04-15 2305 SW 23 29------ 38.1- 38.1---
2024-04-15 2255 SW 22 31------ 37.8- 37.8---
2024-04-15 2245 SW 23 30------ 37.4- 37.4---
2024-04-15 2235 SW 24 30------ 37.8- 37.8---
2024-04-15 2215SSW 25 30------ 37.6- 37.6---
2024-04-15 2205SSW 23 32------ 37.6- 37.6---
2024-04-15 2145 S 23 31------ 37.9- 37.9---
2024-04-15 2135SSW 24 32------ 37.6- 37.6---
2024-04-15 2125SSW 25 32------ 37.4- 37.4---
2024-04-15 2115SSW 23 31------ 37.2- 37.2---
2024-04-15 2105SSW 24 32------ 37.0- 37.0---
2024-04-15 2045 S 25 33------ 36.7- 36.7---
2024-04-15 2035 S 25 33------ 36.7- 36.7---
2024-04-15 2025 S 27 35------ 36.7- 36.7---
2024-04-15 2015 S 29 37------ 36.9- 36.9---
2024-04-15 2005 S 30 38------ 36.7- 36.7---
2024-04-15 1955 S 32 42------ 36.5- 36.5---
2024-04-15 1945 S 33 44------ 36.3- 36.3---
2024-04-15 1935 S 33 44------ 36.1- 36.1---
2024-04-15 1915SSE 32 41------ 35.8- 35.8---
2024-04-15 1905SSE 33 41------ 35.6- 35.6---